createdAt,value
2022-08-07T00:02:35.512Z,27.38
2022-08-07T00:04:46.468Z,27.62
2022-08-07T00:07:59.647Z,27.69
2022-08-07T00:11:03.567Z,27.66
2022-08-07T00:14:09.618Z,27.48
2022-08-07T00:17:16.087Z,27.31
2022-08-07T00:20:29.813Z,27.23
2022-08-07T00:23:41.532Z,27.08
2022-08-07T00:26:59.102Z,27.00
2022-08-07T00:30:21.749Z,27.01
2022-08-07T00:33:32.825Z,26.98
2022-08-07T00:36:36.103Z,26.91
2022-08-07T00:39:45.090Z,26.67
2022-08-07T00:42:50.353Z,26.95
2022-08-07T00:45:55.907Z,27.07
2022-08-07T00:49:03.154Z,27.30
2022-08-07T00:52:07.413Z,27.46
2022-08-07T00:55:17.460Z,27.50
2022-08-07T00:58:28.716Z,27.43
2022-08-07T01:01:44.589Z,27.16
2022-08-07T01:04:47.972Z,27.05
2022-08-07T01:07:51.654Z,26.91
2022-08-07T01:10:56.715Z,26.86
2022-08-07T01:14:04.019Z,26.65
2022-08-07T01:17:07.748Z,26.33
2022-08-07T01:20:16.581Z,26.49
2022-08-07T01:23:26.882Z,26.42
2022-08-07T01:26:41.239Z,26.55
2022-08-07T01:29:44.981Z,26.62
2022-08-07T01:32:48.539Z,26.58
2022-08-07T01:35:54.526Z,26.60
2022-08-07T01:39:10.737Z,26.81
2022-08-07T01:42:39.299Z,26.80
2022-08-07T01:45:40.080Z,27.20
2022-08-07T01:48:46.756Z,27.26
2022-08-07T01:52:04.144Z,27.33
2022-08-07T01:55:22.334Z,27.51
2022-08-07T01:58:33.351Z,27.48
2022-08-07T02:02:02.073Z,27.54
2022-08-07T02:05:09.086Z,27.24
2022-08-07T02:08:24.095Z,27.11
2022-08-07T02:11:30.958Z,27.03
2022-08-07T02:14:57.265Z,26.89
2022-08-07T02:18:02.868Z,26.73
2022-08-07T02:21:08.834Z,26.30
2022-08-07T02:24:22.599Z,26.28
2022-08-07T02:27:34.461Z,26.24
2022-08-07T02:30:39.944Z,25.90
2022-08-07T02:34:04.054Z,26.24
2022-08-07T02:37:08.874Z,26.67
2022-08-07T02:40:35.133Z,26.82
2022-08-07T02:43:40.590Z,26.96
2022-08-07T02:46:52.559Z,26.95
2022-08-07T02:50:00.003Z,27.03
2022-08-07T02:53:10.832Z,27.06
2022-08-07T02:56:21.703Z,27.04
2022-08-07T02:59:28.765Z,26.69
2022-08-07T03:02:33.034Z,26.46
2022-08-07T03:05:39.100Z,26.24
2022-08-07T03:08:44.030Z,26.19
2022-08-07T03:11:51.870Z,25.88
2022-08-07T03:15:07.830Z,25.82
2022-08-07T03:18:11.787Z,25.91
2022-08-07T03:21:22.554Z,26.08
2022-08-07T03:24:27.460Z,26.24
2022-08-07T03:27:58.780Z,26.31
2022-08-07T03:31:18.250Z,26.67
2022-08-07T03:34:22.838Z,26.83
2022-08-07T03:37:32.582Z,27.03
2022-08-07T03:40:37.233Z,27.07
2022-08-07T03:43:44.002Z,27.11
2022-08-07T03:47:11.429Z,27.21
2022-08-07T03:50:23.441Z,27.24
2022-08-07T03:54:00.585Z,27.08
2022-08-07T03:57:03.755Z,26.91
2022-08-07T04:00:11.754Z,26.84
2022-08-07T04:03:17.766Z,26.77
2022-08-07T04:06:37.577Z,26.68
2022-08-07T04:09:45.200Z,26.69
2022-08-07T04:12:53.651Z,26.71
2022-08-07T04:15:58.672Z,26.64
2022-08-07T04:19:12.739Z,26.66
2022-08-07T04:22:19.432Z,26.78
2022-08-07T04:25:28.991Z,27.10
2022-08-07T04:28:32.594Z,27.18
2022-08-07T04:31:39.120Z,27.37
2022-08-07T04:35:01.487Z,27.51
2022-08-07T04:38:08.750Z,27.65
2022-08-07T04:41:18.361Z,27.69
2022-08-07T04:44:22.836Z,27.73
2022-08-07T04:47:57.193Z,27.69
2022-08-07T04:51:09.323Z,27.82
2022-08-07T04:54:22.637Z,27.65
2022-08-07T04:58:07.923Z,27.59
2022-08-07T05:01:18.184Z,27.53
2022-08-07T05:04:30.567Z,27.38
2022-08-07T05:07:48.627Z,27.06
2022-08-07T05:11:02.826Z,27.22
2022-08-07T05:14:53.899Z,27.26
2022-08-07T05:17:52.578Z,27.27
2022-08-07T05:21:00.523Z,27.40
2022-08-07T05:24:11.280Z,27.40
2022-08-07T05:28:03.483Z,27.54
2022-08-07T05:30:42.185Z,26.90
2022-08-07T05:33:51.359Z,26.55
2022-08-07T05:37:08.671Z,26.34
2022-08-07T05:40:20.461Z,25.99
2022-08-07T05:44:01.498Z,25.77
2022-08-07T05:46:51.347Z,25.75
2022-08-07T05:49:55.729Z,25.78
2022-08-07T05:52:59.019Z,25.66
2022-08-07T05:56:06.820Z,25.72
2022-08-07T05:59:16.730Z,25.50
2022-08-07T06:02:22.748Z,25.62
2022-08-07T06:05:32.954Z,25.48
2022-08-07T06:08:42.443Z,25.47
2022-08-07T06:11:49.769Z,25.59
2022-08-07T06:14:54.027Z,25.68
2022-08-07T06:18:03.213Z,25.44
2022-08-07T06:22:15.644Z,25.82
2022-08-07T06:24:48.154Z,25.91
2022-08-07T06:28:03.345Z,25.88
2022-08-07T06:31:06.920Z,25.90
2022-08-07T06:34:10.039Z,25.81
2022-08-07T06:37:17.256Z,25.64
2022-08-07T06:40:23.935Z,25.74
2022-08-07T06:43:39.787Z,25.97
2022-08-07T06:46:43.606Z,25.79
2022-08-07T06:49:58.261Z,25.89
2022-08-07T06:53:04.252Z,25.96
2022-08-07T06:56:15.137Z,25.93
2022-08-07T07:00:12.818Z,26.25
2022-08-07T07:02:53.445Z,26.95
2022-08-07T07:06:02.479Z,26.94
2022-08-07T07:09:23.520Z,27.05
2022-08-07T07:12:38.343Z,27.21
2022-08-07T07:16:00.400Z,27.12
2022-08-07T07:19:54.767Z,26.96
2022-08-07T07:22:39.759Z,26.98
2022-08-07T07:26:34.000Z,26.92
2022-08-07T07:29:56.456Z,26.92
2022-08-07T07:32:53.490Z,27.17
2022-08-07T07:36:05.378Z,27.15
2022-08-07T07:39:11.237Z,27.37
2022-08-07T07:42:17.718Z,27.46
2022-08-07T07:46:39.773Z,27.66
2022-08-07T07:48:59.890Z,27.38
2022-08-07T07:52:15.876Z,27.23
2022-08-07T07:55:21.727Z,26.92
2022-08-07T07:58:30.200Z,26.91
2022-08-07T08:02:03.856Z,26.86
2022-08-07T08:05:00.787Z,26.38
2022-08-07T08:08:05.014Z,25.77
2022-08-07T08:11:13.846Z,25.54
2022-08-07T08:14:26.361Z,25.53
2022-08-07T08:17:32.557Z,25.49
2022-08-07T08:20:59.514Z,25.21
2022-08-07T08:24:36.044Z,25.62
2022-08-07T08:27:56.648Z,26.50
2022-08-07T08:31:05.250Z,26.77
2022-08-07T08:34:12.456Z,26.87
2022-08-07T08:38:00.606Z,27.05
2022-08-07T08:40:57.621Z,27.22
2022-08-07T08:44:05.425Z,27.62
2022-08-07T08:47:19.774Z,27.84
2022-08-07T08:50:39.049Z,27.98
2022-08-07T08:53:50.647Z,28.19
2022-08-07T08:56:55.961Z,28.35
2022-08-07T09:00:05.049Z,28.57
2022-08-07T09:03:20.343Z,28.61
2022-08-07T09:06:36.399Z,28.55
2022-08-07T09:10:02.559Z,28.55
2022-08-07T09:13:20.617Z,28.61
2022-08-07T09:16:59.085Z,28.74
2022-08-07T09:20:34.818Z,28.57
2022-08-07T09:24:31.268Z,28.57
2022-08-07T09:27:30.294Z,28.73
2022-08-07T09:30:47.637Z,28.87
2022-08-07T09:34:32.936Z,28.98
2022-08-07T09:37:53.423Z,29.06
2022-08-07T09:41:09.143Z,29.12
2022-08-07T09:44:32.966Z,29.10
2022-08-07T09:48:11.520Z,29.07
2022-08-07T09:52:15.482Z,28.98
2022-08-07T09:55:00.410Z,29.05
2022-08-07T09:58:42.181Z,29.21
2022-08-07T10:02:03.251Z,29.21
2022-08-07T10:06:00.107Z,29.15
2022-08-07T10:09:59.369Z,29.22
2022-08-07T10:14:00.356Z,29.34
2022-08-07T10:17:20.456Z,29.41
2022-08-07T10:20:34.195Z,29.06
2022-08-07T10:24:05.379Z,28.69
2022-08-07T10:27:21.582Z,28.25
2022-08-07T10:30:34.002Z,27.93
2022-08-07T10:34:05.070Z,27.70
2022-08-07T10:38:00.162Z,27.41
2022-08-07T10:41:02.321Z,27.17
2022-08-07T10:44:19.279Z,26.89
2022-08-07T10:47:54.126Z,26.59
2022-08-07T10:51:05.078Z,26.43
2022-08-07T10:54:17.362Z,26.83
2022-08-07T10:57:29.490Z,26.84
2022-08-07T11:00:50.516Z,26.58
2022-08-07T11:04:11.164Z,26.67
2022-08-07T11:07:58.551Z,26.47
2022-08-07T11:11:07.336Z,26.34
2022-08-07T11:14:45.764Z,26.19
2022-08-07T11:17:47.975Z,26.20
2022-08-07T11:21:00.420Z,26.12
2022-08-07T11:24:13.370Z,26.11
2022-08-07T11:27:33.493Z,26.06
2022-08-07T11:30:55.878Z,25.77
2022-08-07T11:34:06.351Z,25.64
2022-08-07T11:37:38.451Z,25.58
2022-08-07T11:40:57.351Z,25.35
2022-08-07T11:44:14.280Z,25.23
2022-08-07T11:47:38.641Z,26.21
2022-08-07T11:51:10.387Z,26.56
2022-08-07T11:54:54.741Z,27.04
2022-08-07T11:58:13.281Z,27.40
2022-08-07T12:01:59.420Z,27.69
2022-08-07T12:05:15.260Z,27.91
2022-08-07T12:08:35.883Z,28.05
2022-08-07T12:12:09.373Z,28.17
2022-08-07T12:15:17.380Z,28.27
2022-08-07T12:18:47.966Z,28.35
2022-08-07T12:22:37.368Z,28.41
2022-08-07T12:26:05.530Z,28.49
2022-08-07T12:29:38.466Z,28.55
2022-08-07T12:32:51.550Z,28.60
2022-08-07T12:35:57.968Z,28.63
2022-08-07T12:39:42.789Z,28.65
2022-08-07T12:42:32.172Z,28.58
2022-08-07T12:45:43.110Z,28.44
2022-08-07T12:48:58.666Z,28.34
2022-08-07T12:52:17.949Z,28.27
2022-08-07T12:55:41.122Z,28.24
2022-08-07T12:58:53.275Z,28.17
2022-08-07T13:02:15.592Z,28.14
2022-08-07T13:06:03.598Z,28.15
2022-08-07T13:10:10.932Z,28.32
2022-08-07T13:12:39.031Z,28.49
2022-08-07T13:15:56.129Z,28.59
2022-08-07T13:19:21.874Z,28.69
2022-08-07T13:22:52.515Z,28.65
2022-08-07T13:26:03.806Z,28.39
2022-08-07T13:29:13.923Z,27.83
2022-08-07T13:32:31.407Z,27.09
2022-08-07T13:35:59.953Z,26.46
2022-08-07T13:39:12.982Z,26.05
2022-08-07T13:42:38.871Z,25.80
2022-08-07T13:46:11.415Z,25.77
2022-08-07T13:50:33.721Z,25.51
2022-08-07T13:52:46.966Z,25.23
2022-08-07T13:55:54.556Z,24.95
2022-08-07T13:59:05.359Z,24.87
2022-08-07T14:02:13.267Z,24.75
2022-08-07T14:05:22.099Z,24.65
2022-08-07T14:08:26.693Z,25.75
2022-08-07T14:11:53.281Z,26.28
2022-08-07T14:15:04.307Z,26.84
2022-08-07T14:18:27.226Z,27.23
2022-08-07T14:22:03.865Z,27.55
2022-08-07T14:25:04.259Z,27.79
2022-08-07T14:28:13.727Z,27.96
2022-08-07T14:31:18.280Z,28.08
2022-08-07T14:34:29.183Z,28.18
2022-08-07T14:37:36.212Z,28.28
2022-08-07T14:40:49.531Z,28.33
2022-08-07T14:44:10.018Z,28.39
2022-08-07T14:47:17.535Z,28.32
2022-08-07T14:50:24.538Z,28.17
2022-08-07T14:54:03.758Z,28.04
2022-08-07T14:56:58.682Z,27.96
2022-08-07T15:00:09.401Z,27.90
2022-08-07T15:06:39.881Z,27.91
2022-08-07T15:10:00.911Z,27.89
2022-08-07T15:13:16.868Z,27.96
2022-08-07T15:16:33.558Z,28.11
2022-08-07T15:20:30.292Z,28.28
2022-08-07T15:23:20.377Z,28.40
2022-08-07T15:26:34.888Z,28.47
2022-08-07T15:30:10.047Z,28.48
2022-08-07T15:33:19.358Z,28.54
2022-08-07T15:39:57.899Z,28.58
2022-08-07T15:43:07.091Z,28.60
2022-08-07T15:46:37.745Z,28.42
2022-08-07T15:53:17.360Z,28.07
2022-08-07T15:56:33.555Z,27.99
2022-08-07T15:59:44.200Z,27.88
2022-08-07T16:02:49.795Z,27.73
2022-08-07T16:05:54.953Z,27.76
2022-08-07T16:09:03.560Z,27.64
2022-08-07T16:12:28.681Z,27.92
2022-08-07T16:15:55.171Z,28.12
2022-08-07T16:19:14.343Z,28.30
2022-08-07T16:22:54.307Z,28.47
2022-08-07T16:26:14.436Z,28.59
2022-08-07T16:30:10.356Z,28.64
2022-08-07T16:34:03.354Z,28.72
2022-08-07T16:37:02.693Z,28.77
2022-08-07T16:41:02.125Z,28.84
2022-08-07T16:44:53.810Z,28.87
2022-08-07T16:48:16.363Z,28.86
2022-08-07T16:52:01.260Z,28.69
2022-08-07T16:55:13.255Z,28.54
2022-08-07T16:58:27.475Z,28.40
2022-08-07T17:01:41.253Z,28.26
2022-08-07T17:04:58.860Z,28.33
2022-08-07T17:08:02.238Z,28.30
2022-08-07T17:11:14.564Z,28.16
2022-08-07T17:14:24.825Z,28.21
2022-08-07T17:17:47.030Z,28.23
2022-08-07T17:20:54.745Z,28.14
2022-08-07T17:24:24.982Z,28.08
2022-08-07T17:27:51.016Z,28.13
2022-08-07T17:31:16.353Z,28.35
2022-08-07T17:34:34.786Z,28.52
2022-08-07T17:38:11.405Z,28.63
2022-08-07T17:42:02.452Z,28.72
2022-08-07T17:44:51.370Z,28.75
2022-08-07T17:48:04.547Z,28.82
2022-08-07T17:51:21.565Z,28.86
2022-08-07T17:54:53.241Z,28.86
2022-08-07T17:58:04.133Z,28.90
2022-08-07T18:01:20.879Z,28.93
2022-08-07T18:04:36.224Z,28.95
2022-08-07T18:07:43.669Z,28.95
2022-08-07T18:12:08.054Z,28.94
2022-08-07T18:14:24.124Z,28.94
2022-08-07T18:18:44.653Z,28.96
2022-08-07T18:21:30.072Z,28.94
2022-08-07T18:24:34.860Z,28.94
2022-08-07T18:28:00.411Z,28.95
2022-08-07T18:31:18.410Z,28.94
2022-08-07T18:34:53.457Z,28.82
2022-08-07T18:38:55.491Z,28.62
2022-08-07T18:41:54.877Z,28.44
2022-08-07T18:45:43.047Z,28.32
2022-08-07T18:50:06.133Z,28.23
2022-08-07T18:52:38.825Z,28.08
2022-08-07T18:55:55.965Z,27.89
2022-08-07T18:59:47.432Z,28.09
2022-08-07T19:02:46.494Z,28.35
2022-08-07T19:06:04.065Z,28.39
2022-08-07T19:09:57.400Z,28.53
2022-08-07T19:12:58.238Z,28.48
2022-08-07T19:17:04.212Z,28.55
2022-08-07T19:20:00.772Z,28.52
2022-08-07T19:23:18.528Z,28.60
2022-08-07T19:26:29.390Z,28.65
2022-08-07T19:31:02.940Z,28.40
2022-08-07T19:33:10.251Z,28.32
2022-08-07T19:36:27.783Z,27.98
2022-08-07T19:39:56.152Z,27.83
2022-08-07T19:42:59.852Z,27.69
2022-08-07T19:46:07.193Z,27.68
2022-08-07T19:49:18.568Z,27.63
2022-08-07T19:52:42.100Z,27.50
2022-08-07T19:55:58.097Z,27.55
2022-08-07T19:59:03.767Z,27.62
2022-08-07T20:02:18.955Z,27.36
2022-08-07T20:05:28.719Z,27.34
2022-08-07T20:08:34.340Z,27.49
2022-08-07T20:12:23.262Z,27.43
2022-08-07T20:15:19.078Z,27.49
2022-08-07T20:18:33.040Z,27.85
2022-08-07T20:21:47.692Z,28.08
2022-08-07T20:25:00.204Z,28.14
2022-08-07T20:28:06.526Z,27.93
2022-08-07T20:31:21.264Z,27.76
2022-08-07T20:34:46.529Z,27.58
2022-08-07T20:37:57.647Z,27.49
2022-08-07T20:41:05.513Z,27.39
2022-08-07T20:44:13.137Z,27.16
2022-08-07T20:47:25.171Z,27.19
2022-08-07T20:50:30.635Z,27.24
2022-08-07T20:54:02.777Z,27.53
2022-08-07T20:57:10.187Z,27.79
2022-08-07T21:00:17.707Z,27.89
2022-08-07T21:03:25.912Z,27.98
2022-08-07T21:06:33.392Z,28.05
2022-08-07T21:09:52.863Z,28.12
2022-08-07T21:13:24.442Z,28.08
2022-08-07T21:17:06.691Z,28.13
2022-08-07T21:20:26.472Z,27.96
2022-08-07T21:23:50.856Z,27.67
2022-08-07T21:27:00.176Z,27.33
2022-08-07T21:30:08.572Z,27.19
2022-08-07T21:33:22.570Z,26.97
2022-08-07T21:36:32.779Z,26.67
2022-08-07T21:39:51.706Z,26.63
2022-08-07T21:43:06.576Z,26.11
2022-08-07T21:46:25.148Z,26.55
2022-08-07T21:50:01.408Z,26.99
2022-08-07T21:53:10.775Z,27.06
2022-08-07T21:56:39.664Z,27.30
2022-08-07T22:00:04.239Z,27.43
2022-08-07T22:03:16.837Z,27.69
2022-08-07T22:06:30.121Z,27.84
2022-08-07T22:09:53.772Z,27.91
2022-08-07T22:13:00.951Z,27.70
2022-08-07T22:16:43.410Z,27.53
2022-08-07T22:19:39.941Z,27.39
2022-08-07T22:22:49.298Z,27.31
2022-08-07T22:26:02.698Z,27.21
2022-08-07T22:29:16.339Z,27.12
2022-08-07T22:32:33.532Z,27.07
2022-08-07T22:35:41.623Z,26.97
2022-08-07T22:38:53.783Z,27.04
